createdAt,value
2019-03-25T00:02:24.173Z,49.67
2019-03-25T00:05:11.072Z,47.43
2019-03-25T00:07:38.245Z,47.10
2019-03-25T00:10:06.174Z,49.60
2019-03-25T00:12:33.390Z,49.50
2019-03-25T00:15:00.537Z,47.80
2019-03-25T00:17:27.755Z,48.70
2019-03-25T00:19:54.912Z,48.83
2019-03-25T00:22:22.113Z,49.33
2019-03-25T00:24:49.293Z,51.27
2019-03-25T00:27:16.536Z,47.93
2019-03-25T00:29:43.692Z,46.07
2019-03-25T00:32:10.953Z,45.87
2019-03-25T00:34:38.137Z,49.77
2019-03-25T00:37:05.393Z,47.33
2019-03-25T00:39:32.533Z,47.87
2019-03-25T00:41:59.713Z,48.20
2019-03-25T00:44:26.892Z,47.07
2019-03-25T00:46:54.072Z,48.23
2019-03-25T00:49:21.495Z,48.93
2019-03-25T00:51:48.659Z,45.73
2019-03-25T00:54:15.869Z,47.57
2019-03-25T00:56:43.013Z,46.17
2019-03-25T00:59:10.212Z,47.93
2019-03-25T01:01:37.313Z,49.60
2019-03-25T01:04:04.753Z,47.73
2019-03-25T01:06:31.932Z,49.07
2019-03-25T01:08:59.087Z,48.70
2019-03-25T01:11:26.353Z,49.33
2019-03-25T01:13:53.593Z,48.77
2019-03-25T01:16:20.746Z,48.47
2019-03-25T01:18:47.961Z,48.83
2019-03-25T01:21:34.815Z,50.90
2019-03-25T01:24:02.015Z,51.03
2019-03-25T01:26:29.133Z,49.97
2019-03-25T01:28:56.441Z,52.13
2019-03-25T01:31:23.616Z,50.67
2019-03-25T01:33:50.812Z,50.93
2019-03-25T01:36:17.992Z,50.60
2019-03-25T01:38:45.132Z,52.13
2019-03-25T01:41:12.331Z,51.00
2019-03-25T01:43:39.532Z,50.93
2019-03-25T01:46:06.692Z,52.03
2019-03-25T01:48:34.261Z,51.50
2019-03-25T01:51:01.393Z,52.37
2019-03-25T01:53:28.584Z,52.53
2019-03-25T01:55:55.792Z,50.97
2019-03-25T01:58:22.953Z,53.30
2019-03-25T02:00:50.152Z,51.13
2019-03-25T02:03:17.333Z,52.97
2019-03-25T02:05:44.533Z,52.03
2019-03-25T02:08:11.632Z,54.27
2019-03-25T02:10:38.812Z,54.17
2019-03-25T02:13:05.953Z,51.57
2019-03-25T02:15:33.133Z,54.37
2019-03-25T02:18:00.237Z,52.17
2019-03-25T02:20:28.012Z,51.70
2019-03-25T02:22:55.772Z,53.20
2019-03-25T02:25:29.893Z,53.77
2019-03-25T02:27:57.200Z,54.67
2019-03-25T02:30:24.681Z,55.23
2019-03-25T02:32:51.896Z,52.80
2019-03-25T02:35:19.114Z,53.80
2019-03-25T02:37:46.296Z,53.13
2019-03-25T02:40:13.534Z,53.67
2019-03-25T02:42:40.656Z,53.90
2019-03-25T02:45:08.355Z,55.30
2019-03-25T02:47:35.580Z,52.63
2019-03-25T02:50:04.561Z,54.43
2019-03-25T02:52:31.694Z,53.20
2019-03-25T02:54:58.934Z,52.33
2019-03-25T02:57:26.068Z,52.47
2019-03-25T02:59:53.202Z,53.47
2019-03-25T03:02:20.573Z,51.63
2019-03-25T03:04:47.688Z,52.93
2019-03-25T03:07:14.920Z,52.67
2019-03-25T03:09:42.117Z,53.50
2019-03-25T03:12:09.353Z,50.07
2019-03-25T03:14:36.479Z,52.47
2019-03-25T03:17:03.753Z,52.97
2019-03-25T03:19:30.897Z,51.90
2019-03-25T03:21:58.095Z,53.37
2019-03-25T03:24:25.274Z,52.37
2019-03-25T03:26:52.494Z,53.23
2019-03-25T03:29:19.654Z,53.17
2019-03-25T03:31:46.873Z,52.47
2019-03-25T03:34:14.495Z,55.17
2019-03-25T03:36:41.692Z,52.07
2019-03-25T03:39:08.854Z,53.23
2019-03-25T03:41:36.311Z,51.87
2019-03-25T03:44:03.655Z,53.80
2019-03-25T03:46:30.836Z,54.03
2019-03-25T03:48:58.034Z,52.87
2019-03-25T03:51:25.323Z,52.87
2019-03-25T03:53:52.575Z,51.57
2019-03-25T03:56:20.118Z,52.83
2019-03-25T03:58:47.773Z,52.43
2019-03-25T04:01:14.965Z,52.77
2019-03-25T04:03:42.153Z,53.73
2019-03-25T04:06:09.314Z,55.23
2019-03-25T04:08:36.519Z,53.90
2019-03-25T04:11:03.663Z,53.87
2019-03-25T04:13:30.873Z,54.53
2019-03-25T04:16:01.181Z,51.20
2019-03-25T04:18:27.294Z,54.33
2019-03-25T04:20:54.473Z,54.00
2019-03-25T04:23:21.694Z,53.40
2019-03-25T04:25:48.814Z,53.70
2019-03-25T04:28:16.298Z,54.03
2019-03-25T04:30:43.435Z,52.73
2019-03-25T04:33:10.613Z,52.87
2019-03-25T04:35:37.714Z,53.47
2019-03-25T04:38:05.034Z,52.87
2019-03-25T04:40:32.215Z,53.27
2019-03-25T04:42:59.476Z,53.80
2019-03-25T04:45:26.632Z,51.40
2019-03-25T04:47:53.813Z,54.30
2019-03-25T04:50:20.971Z,50.80
2019-03-25T04:52:48.189Z,52.70
2019-03-25T04:55:15.313Z,52.73
2019-03-25T04:57:42.471Z,52.20
2019-03-25T05:00:10.973Z,53.33
2019-03-25T05:02:38.173Z,53.00
2019-03-25T05:05:08.053Z,51.77
2019-03-25T05:07:35.318Z,53.07
2019-03-25T05:10:05.295Z,52.10
2019-03-25T05:12:32.482Z,51.87
2019-03-25T05:15:09.212Z,53.67
2019-03-25T05:17:40.732Z,51.17
2019-03-25T05:20:11.652Z,52.07
2019-03-25T05:22:46.112Z,51.00
2019-03-25T05:25:16.233Z,51.80
2019-03-25T05:27:49.694Z,52.00
2019-03-25T05:30:22.996Z,51.63
2019-03-25T05:32:58.511Z,50.43
2019-03-25T05:35:29.216Z,51.33
2019-03-25T05:38:01.172Z,50.20
2019-03-25T05:40:33.712Z,53.03
2019-03-25T05:43:06.532Z,51.73
2019-03-25T05:45:38.874Z,52.80
2019-03-25T05:48:09.940Z,53.07
2019-03-25T05:50:46.837Z,51.53
2019-03-25T05:53:20.853Z,52.07
2019-03-25T05:55:57.993Z,53.40
2019-03-25T05:58:31.928Z,52.50
2019-03-25T06:01:04.793Z,49.83
2019-03-25T06:03:35.533Z,51.63
2019-03-25T06:06:06.457Z,51.10
2019-03-25T06:08:42.033Z,52.60
2019-03-25T06:11:13.873Z,54.90
2019-03-25T06:13:44.380Z,52.00
2019-03-25T06:16:18.092Z,53.30
2019-03-25T06:18:50.253Z,53.77
2019-03-25T06:21:26.438Z,54.33
2019-03-25T06:24:01.693Z,53.70
2019-03-25T06:26:34.194Z,55.47
2019-03-25T06:29:09.213Z,55.53
2019-03-25T06:31:42.197Z,55.17
2019-03-25T06:34:19.249Z,55.13
2019-03-25T06:36:52.113Z,53.63
2019-03-25T06:39:22.474Z,56.27
2019-03-25T06:41:56.202Z,54.50
2019-03-25T06:44:27.200Z,56.80
2019-03-25T06:47:00.796Z,55.43
2019-03-25T06:49:35.309Z,55.10
2019-03-25T06:52:09.823Z,54.67
2019-03-25T07:36:55.072Z,51.83
2019-03-25T07:39:22.292Z,50.73
2019-03-25T07:41:49.492Z,48.80
2019-03-25T07:44:16.699Z,48.40
2019-03-25T07:46:44.073Z,47.23
2019-03-25T07:49:11.333Z,46.03
2019-03-25T07:51:41.798Z,47.57
2019-03-25T07:54:08.998Z,49.03
2019-03-25T07:56:36.896Z,48.80
2019-03-25T07:59:04.177Z,46.47
2019-03-25T08:01:31.733Z,48.27
2019-03-25T08:03:58.872Z,45.33
2019-03-25T08:06:26.183Z,46.80
2019-03-25T08:09:03.327Z,43.83
2019-03-25T08:11:22.753Z,37.93
2019-03-25T08:13:49.946Z,43.17
2019-03-25T08:16:17.229Z,37.87
2019-03-25T08:18:44.596Z,38.17
2019-03-25T08:21:13.213Z,37.33
2019-03-25T08:23:40.376Z,38.37
2019-03-25T08:26:07.633Z,38.37
2019-03-25T08:28:35.994Z,38.23
2019-03-25T08:31:03.494Z,38.60
2019-03-25T08:33:30.813Z,39.03
2019-03-25T08:35:57.973Z,40.07
2019-03-25T08:38:25.294Z,38.33
2019-03-25T08:40:52.593Z,38.93
2019-03-25T08:43:19.796Z,38.70
2019-03-25T08:45:46.953Z,39.13
2019-03-25T08:48:14.142Z,36.70
2019-03-25T08:50:41.313Z,34.23
2019-03-25T08:53:08.513Z,34.67
2019-03-25T08:55:35.833Z,34.67
2019-03-25T08:58:11.896Z,35.93
2019-03-25T09:00:32.296Z,35.27
2019-03-25T09:03:05.605Z,34.10
2019-03-25T09:05:39.853Z,32.50
2019-03-25T09:08:14.872Z,28.10
2019-03-25T09:10:50.972Z,28.23
2019-03-25T09:13:24.055Z,22.17
2019-03-25T09:16:01.837Z,22.70
2019-03-25T09:18:35.273Z,24.30
2019-03-25T09:21:09.035Z,19.97
2019-03-25T09:23:43.016Z,20.17
2019-03-25T09:26:18.253Z,17.47
2019-03-25T09:28:53.513Z,14.90
2019-03-25T09:31:36.414Z,14.10
2019-03-25T09:34:05.690Z,16.83
2019-03-25T09:36:41.809Z,14.70
2019-03-25T09:39:18.738Z,14.57
2019-03-25T09:41:53.780Z,15.20
2019-03-25T09:44:28.615Z,14.47
2019-03-25T09:47:05.878Z,13.90
2019-03-25T09:49:40.738Z,13.63
2019-03-25T09:52:15.978Z,13.57
2019-03-25T09:54:48.758Z,14.37
2019-03-25T09:57:23.997Z,12.67
2019-03-25T09:59:56.137Z,12.60
2019-03-25T10:02:30.258Z,12.27
2019-03-25T10:05:03.978Z,12.20
2019-03-25T10:07:41.318Z,11.97
2019-03-25T10:10:16.120Z,12.10
2019-03-25T10:12:52.180Z,13.20
2019-03-25T10:15:28.537Z,13.17
2019-03-25T10:18:05.498Z,12.13
2019-03-25T10:20:41.578Z,11.57
2019-03-25T10:23:16.618Z,11.07
2019-03-25T10:25:51.610Z,10.50
2019-03-25T10:28:25.619Z,10.83
2019-03-25T10:31:01.758Z,10.60
2019-03-25T10:33:35.696Z,9.60
2019-03-25T10:36:10.519Z,9.03
2019-03-25T10:38:45.932Z,8.77
2019-03-25T10:41:22.890Z,9.00
2019-03-25T10:43:59.931Z,9.23
2019-03-25T10:46:35.155Z,8.27
2019-03-25T10:49:10.012Z,9.07
2019-03-25T10:51:42.770Z,8.77
2019-03-25T10:54:17.149Z,7.90
2019-03-25T10:56:50.789Z,9.47
2019-03-25T10:59:27.670Z,8.60
2019-03-25T11:02:02.288Z,9.27
2019-03-25T11:04:38.150Z,8.33
2019-03-25T11:07:14.262Z,8.13
2019-03-25T11:09:50.349Z,7.30
2019-03-25T11:12:29.209Z,7.13
2019-03-25T11:15:03.410Z,6.57
2019-03-25T11:17:38.039Z,6.17
2019-03-25T11:20:13.457Z,5.07
2019-03-25T11:22:47.282Z,4.87
2019-03-25T11:25:23.326Z,4.67
2019-03-25T11:27:59.667Z,4.63
2019-03-25T11:30:56.727Z,4.77
2019-03-25T11:33:31.592Z,4.50
2019-03-25T11:36:04.767Z,4.53
2019-03-25T11:38:39.627Z,4.47
2019-03-25T11:41:15.648Z,4.70
2019-03-25T11:43:48.847Z,4.47
2019-03-25T11:46:27.768Z,4.40
2019-03-25T11:49:03.028Z,4.53
2019-03-25T11:51:37.027Z,5.50
2019-03-25T11:54:10.167Z,4.37
2019-03-25T11:56:45.227Z,4.10
2019-03-25T11:59:20.368Z,3.60
2019-03-25T12:01:59.390Z,4.37
2019-03-25T12:04:36.393Z,4.37
2019-03-25T12:07:10.457Z,4.07
2019-03-25T12:09:43.288Z,4.10
2019-03-25T12:12:19.354Z,4.30
2019-03-25T12:14:52.668Z,3.53
2019-03-25T12:17:31.768Z,3.50
2019-03-25T12:20:08.727Z,3.93
2019-03-25T12:22:43.840Z,3.73
2019-03-25T12:25:17.827Z,4.43
2019-03-25T12:27:53.654Z,3.87
2019-03-25T12:30:31.907Z,4.07
2019-03-25T12:33:08.966Z,3.73
2019-03-25T12:35:42.629Z,4.00
2019-03-25T12:38:20.947Z,3.23
2019-03-25T12:40:55.168Z,3.67
2019-03-25T12:43:34.948Z,3.27
2019-03-25T12:46:06.847Z,3.40
2019-03-25T12:48:41.729Z,3.57
2019-03-25T12:51:16.008Z,3.30
2019-03-25T12:53:52.928Z,3.00
2019-03-25T12:56:29.947Z,2.90
2019-03-25T12:59:02.669Z,2.63
2019-03-25T13:01:36.889Z,2.90
2019-03-25T13:04:09.855Z,2.77
2019-03-25T13:06:43.856Z,2.63
2019-03-25T13:09:16.847Z,2.27
2019-03-25T13:11:50.668Z,2.50
2019-03-25T13:14:26.848Z,2.67
2019-03-25T13:17:02.816Z,2.70
2019-03-25T13:19:34.724Z,3.10
2019-03-25T13:22:08.727Z,3.53
2019-03-25T13:24:41.531Z,3.43
2019-03-25T13:27:15.701Z,3.70
2019-03-25T13:29:52.838Z,3.97
2019-03-25T13:32:26.408Z,4.37
2019-03-25T13:35:01.690Z,4.50
2019-03-25T13:37:36.668Z,4.57
2019-03-25T13:40:12.568Z,4.37
2019-03-25T13:42:46.708Z,4.60
2019-03-25T13:45:20.589Z,4.53
2019-03-25T13:47:55.628Z,4.43
2019-03-25T13:50:31.647Z,4.80
2019-03-25T13:53:07.647Z,4.43
2019-03-25T13:55:44.388Z,4.27
2019-03-25T13:58:18.748Z,4.63
2019-03-25T14:00:55.692Z,4.73
2019-03-25T14:03:37.767Z,4.50
2019-03-25T14:06:15.767Z,4.40
2019-03-25T14:08:55.864Z,4.17
2019-03-25T14:11:31.392Z,3.50
2019-03-25T14:14:07.449Z,3.23
2019-03-25T14:16:43.488Z,2.90
2019-03-25T14:19:17.866Z,2.87
2019-03-25T14:21:52.747Z,2.63
2019-03-25T14:24:26.771Z,2.40
2019-03-25T14:27:02.888Z,1.97
2019-03-25T14:32:13.928Z,2.40
2019-03-25T14:34:55.976Z,2.40
2019-03-25T14:37:32.008Z,2.40
2019-03-25T14:40:05.988Z,2.30
2019-03-25T14:42:38.747Z,2.13
2019-03-25T14:45:14.135Z,2.40
2019-03-25T14:47:48.008Z,2.40
2019-03-25T14:50:24.470Z,2.33
2019-03-25T14:52:58.889Z,2.60
2019-03-25T14:55:33.310Z,3.20
2019-03-25T14:58:06.136Z,2.13
2019-03-25T15:00:39.472Z,2.00
2019-03-25T15:03:15.622Z,2.30
2019-03-25T15:05:48.640Z,2.30
2019-03-25T15:08:22.735Z,2.70
2019-03-25T15:11:00.843Z,2.40
2019-03-25T15:13:35.671Z,2.67
2019-03-25T15:16:15.825Z,3.00
2019-03-25T15:18:49.263Z,3.50
2019-03-25T15:21:28.384Z,4.27
2019-03-25T15:24:02.526Z,4.23
2019-03-25T15:26:36.656Z,4.80
2019-03-25T15:29:09.559Z,4.90
2019-03-25T15:31:45.642Z,4.50
2019-03-25T15:34:21.677Z,4.60
2019-03-25T15:36:56.928Z,4.83
2019-03-25T15:39:34.207Z,4.40
2019-03-25T15:42:09.414Z,4.43
2019-03-25T15:44:44.439Z,4.23
2019-03-25T15:47:21.289Z,4.20
2019-03-25T15:49:55.578Z,3.90
2019-03-25T15:52:27.514Z,4.30
2019-03-25T15:55:01.569Z,4.40
2019-03-25T15:57:39.795Z,4.20
2019-03-25T16:00:20.618Z,2.80
2019-03-25T16:02:52.935Z,3.10
2019-03-25T16:05:32.015Z,2.97
2019-03-25T16:08:05.096Z,3.03
2019-03-25T16:10:39.926Z,3.43
2019-03-25T16:13:15.280Z,3.40
2019-03-25T16:15:52.384Z,3.43
2019-03-25T16:18:39.995Z,3.70
2019-03-25T16:21:15.224Z,3.70
2019-03-25T16:23:49.649Z,3.60
2019-03-25T16:26:23.715Z,3.33
2019-03-25T16:28:58.474Z,3.47
2019-03-25T16:31:32.875Z,3.27
2019-03-25T16:34:07.726Z,3.20
2019-03-25T16:36:43.788Z,3.47
2019-03-25T16:39:19.142Z,3.23
2019-03-25T16:41:54.256Z,3.43
2019-03-25T16:44:29.438Z,3.10
2019-03-25T16:47:05.435Z,3.40
2019-03-25T16:49:38.336Z,3.50
2019-03-25T16:52:15.723Z,3.70
2019-03-25T16:54:53.815Z,3.70
2019-03-25T16:57:29.942Z,4.17
2019-03-25T17:00:05.023Z,4.27
2019-03-25T17:02:43.142Z,3.70
2019-03-25T17:05:17.142Z,4.27
2019-03-25T17:07:52.466Z,4.20
2019-03-25T17:10:27.221Z,4.40
2019-03-25T17:13:02.703Z,4.27
2019-03-25T17:15:36.462Z,4.43
2019-03-25T17:18:12.921Z,4.73
2019-03-25T17:20:48.157Z,4.90
2019-03-25T17:23:24.359Z,4.57
2019-03-25T17:26:00.443Z,5.10
2019-03-25T17:28:36.369Z,6.10
2019-03-25T17:31:20.583Z,5.47
2019-03-25T17:33:47.643Z,4.13
2019-03-25T17:36:20.826Z,3.70
2019-03-25T17:38:54.031Z,2.80
2019-03-25T17:41:28.445Z,2.70
2019-03-25T17:44:03.707Z,2.83
2019-03-25T17:46:37.273Z,2.73
2019-03-25T17:49:10.025Z,2.67
2019-03-25T17:51:46.965Z,2.80
2019-03-25T17:54:20.388Z,2.60
2019-03-25T17:56:54.567Z,2.80
2019-03-25T17:59:26.805Z,2.43
2019-03-25T18:01:59.906Z,2.80
2019-03-25T18:04:35.086Z,2.20
2019-03-25T18:07:10.166Z,2.40
2019-03-25T18:09:43.465Z,2.47
2019-03-25T18:12:17.593Z,2.43
2019-03-25T18:17:24.574Z,2.40
2019-03-25T18:20:01.145Z,2.40
2019-03-25T18:22:39.538Z,2.40
2019-03-25T18:25:12.351Z,2.10
2019-03-25T18:27:46.545Z,2.20
2019-03-25T18:33:04.209Z,2.30
2019-03-25T18:35:43.565Z,2.80
2019-03-25T18:38:17.125Z,2.60
2019-03-25T18:40:50.319Z,2.87
2019-03-25T18:43:27.206Z,3.03
2019-03-25T18:46:02.659Z,2.90
2019-03-25T18:48:39.900Z,2.90
2019-03-25T18:51:16.013Z,2.80
2019-03-25T18:53:50.203Z,2.90
2019-03-25T18:56:26.291Z,2.90
2019-03-25T18:59:00.264Z,2.93
2019-03-25T19:01:34.702Z,3.10
2019-03-25T19:04:08.697Z,3.20
2019-03-25T19:06:45.990Z,3.07
2019-03-25T19:09:20.061Z,3.97
2019-03-25T19:11:55.250Z,3.80
2019-03-25T19:14:29.638Z,4.20
2019-03-25T19:17:05.847Z,4.30
2019-03-25T19:19:41.041Z,4.63
2019-03-25T19:22:19.158Z,4.00
2019-03-25T19:24:54.428Z,4.10
2019-03-25T19:27:28.296Z,4.03
2019-03-25T19:30:02.760Z,4.70
2019-03-25T19:32:39.598Z,4.60
2019-03-25T19:35:14.045Z,5.20
2019-03-25T19:37:54.258Z,5.67
2019-03-25T19:40:31.060Z,5.40
2019-03-25T19:43:07.543Z,5.70
2019-03-25T19:45:43.642Z,5.80
2019-03-25T19:48:21.861Z,5.67
2019-03-25T19:50:57.736Z,6.20
2019-03-25T19:53:31.125Z,6.13
2019-03-25T19:56:07.021Z,6.17
2019-03-25T19:58:42.231Z,6.43
2019-03-25T20:01:15.592Z,6.70
2019-03-25T20:03:50.710Z,5.43
2019-03-25T20:06:29.830Z,5.70
2019-03-25T20:09:02.957Z,5.83
2019-03-25T20:11:39.683Z,5.50
2019-03-25T20:14:13.305Z,5.13
2019-03-25T20:16:49.481Z,5.93
2019-03-25T20:19:25.388Z,7.77
2019-03-25T20:21:58.550Z,3.67
2019-03-25T20:24:35.906Z,3.90
2019-03-25T20:27:09.007Z,2.50
2019-03-25T20:29:45.895Z,2.27
2019-03-25T20:32:31.237Z,2.27
2019-03-25T20:34:58.447Z,2.00
2019-03-25T20:37:33.668Z,2.03
2019-03-25T20:40:08.909Z,1.77
2019-03-25T20:42:42.160Z,1.87
2019-03-25T20:45:18.670Z,1.77
2019-03-25T20:47:54.207Z,2.23
2019-03-25T20:50:28.684Z,1.70
2019-03-25T20:53:02.909Z,1.87
2019-03-25T20:55:42.852Z,1.80
2019-03-25T20:58:22.292Z,1.80
2019-03-25T21:01:00.414Z,1.90
2019-03-25T21:03:35.636Z,2.00
2019-03-25T21:06:13.677Z,1.87
2019-03-25T21:08:51.992Z,2.10
2019-03-25T21:11:25.129Z,1.93
2019-03-25T21:13:59.336Z,2.10
2019-03-25T21:16:33.595Z,2.30
2019-03-25T21:19:06.715Z,2.20
2019-03-25T21:21:42.894Z,2.20
2019-03-25T21:24:20.057Z,2.37
2019-03-25T21:26:54.104Z,2.33
2019-03-25T21:29:30.184Z,2.80
2019-03-25T21:32:04.569Z,2.80
2019-03-25T21:34:40.857Z,3.23
2019-03-25T21:37:17.966Z,3.30
2019-03-25T21:39:59.085Z,3.00
2019-03-25T21:42:36.197Z,3.00
2019-03-25T21:45:13.078Z,3.37
2019-03-25T21:47:50.604Z,4.20
2019-03-25T21:50:28.516Z,3.60
2019-03-25T21:53:01.917Z,4.03
2019-03-25T21:55:36.836Z,3.80
2019-03-25T21:58:12.877Z,4.00
2019-03-25T22:00:52.408Z,4.07
2019-03-25T22:03:25.396Z,3.47
2019-03-25T22:06:00.235Z,4.40
2019-03-25T22:08:33.714Z,4.17
2019-03-25T22:11:08.874Z,4.93
2019-03-25T22:13:44.716Z,4.60
2019-03-25T22:16:18.074Z,4.63
2019-03-25T22:18:53.165Z,4.93
2019-03-25T22:21:26.355Z,4.57
2019-03-25T22:24:00.459Z,5.07
2019-03-25T22:26:34.597Z,4.87
2019-03-25T22:29:13.796Z,5.20
2019-03-25T22:31:45.678Z,5.43
2019-03-25T22:34:22.996Z,5.50
2019-03-25T22:36:57.156Z,6.20
2019-03-25T22:39:33.003Z,5.80
2019-03-25T22:42:09.420Z,5.90
2019-03-25T22:44:43.497Z,6.63
2019-03-25T22:47:18.356Z,6.13
2019-03-25T22:49:52.742Z,6.50
2019-03-25T22:52:26.937Z,6.50
